Time;durP1;ratioP1;P1;durP2;ratioP2;P2;SDS_P1;SDS_P2;PMS_P1;PMS_P2;Temp;Humidity;BMP_temperature;BMP_pressure;BME280_temperature;BME280_humidity;BME280_pressure;Samples;Min_cycle;Max_cycle;Signal;HPM_P1;HPM_P2
2022/04/02 00:02:15;;;;;;;4.13;2.63;;;;;;;3.44;65.65;101778.47;5047057;28;20130;-61
2022/04/02 00:04:41;;;;;;;8.45;2.08;;;;;;;3.54;65.12;101778.59;5046846;28;20018;-61
2022/04/02 00:07:06;;;;;;;6.47;1.95;;;;;;;3.41;65.69;101776.69;5047526;28;20041;-59
2022/04/02 00:09:31;;;;;;;3.28;2.28;;;;;;;3.36;66.20;101784.47;5047544;28;20483;-62
2022/04/02 00:11:57;;;;;;;3.72;1.90;;;;;;;3.35;66.12;101781.84;5048078;28;20353;-62
2022/04/02 00:14:22;;;;;;;6.15;2.15;;;;;;;3.22;66.46;101784.28;5045948;28;20102;-61
2022/04/02 00:16:47;;;;;;;2.42;2.08;;;;;;;3.45;65.98;101781.06;5047155;28;20170;-60
2022/04/02 00:19:13;;;;;;;8.05;2.13;;;;;;;3.46;66.03;101784.56;5046977;28;20529;-60
2022/04/02 00:21:38;;;;;;;7.38;2.28;;;;;;;3.49;66.11;101782.84;5046322;28;20025;-60
2022/04/02 00:24:04;;;;;;;19.83;2.53;;;;;;;3.62;65.85;101786.50;5048074;28;20171;-60
2022/04/02 00:26:29;;;;;;;7.05;2.28;;;;;;;3.68;65.78;101780.47;5046114;28;20025;-60
2022/04/02 00:28:55;;;;;;;2.75;1.88;;;;;;;3.71;65.53;101779.59;5046550;28;20086;-60
2022/04/02 00:31:21;;;;;;;7.10;3.20;;;;;;;3.76;65.66;101768.34;5045631;28;20139;-59
2022/04/02 00:33:48;;;;;;;9.32;2.42;;;;;;;3.80;65.51;101771.88;5046328;28;20104;-60
2022/04/02 00:36:15;;;;;;;4.07;2.17;;;;;;;3.86;65.50;101768.44;5045880;28;20057;-60
2022/04/02 00:38:41;;;;;;;9.82;2.58;;;;;;;3.69;66.17;101776.09;5046015;28;20369;-63
2022/04/02 00:41:07;;;;;;;8.15;2.20;;;;;;;3.83;65.89;101768.41;5045932;28;20021;-60
2022/04/02 00:43:34;;;;;;;4.60;3.00;;;;;;;3.82;66.26;101764.94;5046843;28;20108;-61
2022/04/02 00:46:05;;;;;;;4.82;1.92;;;;;;;3.89;66.22;101769.34;5045685;28;20150;-60
2022/04/02 00:48:30;;;;;;;5.70;2.20;;;;;;;4.01;65.78;101765.97;5046592;28;20108;-61
2022/04/02 00:50:57;;;;;;;3.78;1.83;;;;;;;4.07;65.82;101772.09;5045212;28;20129;-61
2022/04/02 00:53:24;;;;;;;9.73;2.80;;;;;;;4.01;66.13;101771.19;5046662;28;20036;-60
2022/04/02 00:55:49;;;;;;;12.93;2.45;;;;;;;4.08;66.05;101781.66;5046138;28;20416;-61
2022/04/02 00:58:15;;;;;;;3.47;2.00;;;;;;;4.10;65.89;101778.25;5045278;28;20020;-60
2022/04/02 01:00:42;;;;;;;8.20;2.38;;;;;;;4.15;66.01;101776.53;5028016;28;20420;-59
2022/04/02 01:03:08;;;;;;;5.75;2.17;;;;;;;4.26;65.50;101778.34;5027316;28;20075;-56
2022/04/02 01:05:35;;;;;;;8.10;2.05;;;;;;;4.26;65.85;101781.84;5045877;28;20036;-59
2022/04/02 01:08:01;;;;;;;6.57;2.47;;;;;;;4.32;65.70;101787.94;5027902;28;20041;-61
2022/04/02 01:12:51;;;;;;;8.02;2.22;;;;;;;4.25;65.79;101782.66;5391809;23;20057;-62
2022/04/02 01:15:17;;;;;;;5.25;2.25;;;;;;;4.22;66.03;101781.78;5065028;28;20282;-60
2022/04/02 01:17:42;;;;;;;4.78;2.22;;;;;;;4.23;66.08;101781.81;5066072;28;20158;-62
2022/04/02 01:20:09;;;;;;;11.27;2.20;;;;;;;4.28;66.16;101787.91;5066231;28;20394;-59
2022/04/02 01:22:36;;;;;;;8.88;2.67;;;;;;;4.22;66.42;101790.50;5065171;28;20089;-61
2022/04/02 01:25:01;;;;;;;6.72;2.88;;;;;;;4.15;66.57;101789.56;5048103;28;20020;-60
2022/04/02 01:27:27;;;;;;;8.45;2.53;;;;;;;4.15;66.66;101788.69;5063955;28;20031;-61
2022/04/02 01:29:52;;;;;;;3.60;2.10;;;;;;;4.17;66.58;101784.34;5064313;28;20018;-60
2022/04/02 01:32:17;;;;;;;6.28;2.20;;;;;;;4.16;66.59;101780.00;5065077;28;20230;-61
2022/04/02 01:34:43;;;;;;;5.78;2.40;;;;;;;4.08;67.07;101779.06;5065215;28;20494;-60
2022/04/02 01:37:09;;;;;;;4.50;2.05;;;;;;;4.21;66.57;101777.44;5064721;28;20021;-60
2022/04/02 01:39:35;;;;;;;7.55;2.10;;;;;;;4.19;66.27;101781.75;5065473;28;20482;-60
2022/04/02 01:42:06;;;;;;;3.75;1.83;;;;;;;4.21;66.20;101787.88;5065294;28;20044;-61
2022/04/02 01:44:31;;;;;;;3.78;1.98;;;;;;;4.15;66.30;101781.75;5064219;28;20036;-62
2022/04/02 01:46:57;;;;;;;9.57;2.08;;;;;;;4.13;66.70;101782.59;5065367;28;20086;-60
2022/04/02 01:49:22;;;;;;;11.50;2.30;;;;;;;3.96;66.90;101785.03;5063730;28;20033;-60
2022/04/02 01:51:47;;;;;;;8.48;2.75;;;;;;;3.86;66.91;101789.31;5064999;28;20035;-60
2022/04/02 01:54:13;;;;;;;4.25;1.92;;;;;;;3.83;67.05;101794.50;5063288;28;20051;-61
2022/04/02 01:56:38;;;;;;;8.32;2.28;;;;;;;3.86;67.06;101799.75;5061988;28;20040;-62
2022/04/02 01:59:03;;;;;;;3.40;2.08;;;;;;;3.77;66.73;101796.16;5064700;28;20033;-60
2022/04/02 02:01:28;;;;;;;5.03;2.10;;;;;;;3.68;66.72;101801.31;5047895;28;20036;-60
2022/04/02 02:03:54;;;;;;;5.05;2.00;;;;;;;3.65;66.89;101796.06;5065564;28;20021;-60
2022/04/02 02:06:19;;;;;;;5.05;2.33;;;;;;;3.69;67.04;101802.16;5065375;28;20486;-60
2022/04/02 02:08:44;;;;;;;7.57;1.60;;;;;;;3.54;67.51;101802.03;5065008;28;20040;-59
2022/04/02 02:11:10;;;;;;;7.18;2.40;;;;;;;3.53;67.70;101799.41;5045942;28;20123;-60
2022/04/02 02:13:35;;;;;;;3.90;2.15;;;;;;;3.51;67.70;101799.41;5065717;28;20087;-62
2022/04/02 02:16:00;;;;;;;6.97;2.28;;;;;;;3.48;67.37;101791.53;5063900;28;20136;-60
2022/04/02 02:18:26;;;;;;;8.20;2.90;;;;;;;3.25;68.03;101802.56;5064827;28;20059;-60
2022/04/02 02:20:51;;;;;;;3.30;2.30;;;;;;;3.28;67.85;101792.19;5065439;28;20016;-61
2022/04/02 02:23:16;;;;;;;6.03;2.10;;;;;;;3.29;67.56;101799.13;5064467;28;20453;-60
2022/04/02 02:25:41;;;;;;;6.65;2.53;;;;;;;3.33;67.07;101793.97;5045154;28;20035;-61
2022/04/02 02:28:07;;;;;;;8.88;2.40;;;;;;;3.40;67.04;101803.59;5064168;28;20024;-59
2022/04/02 02:30:33;;;;;;;5.95;2.45;;;;;;;3.31;67.90;101800.91;5062199;28;20025;-60
2022/04/02 02:35:51;;;;;;;6.05;2.50;;;;;;;3.23;68.38;101816.44;5064196;28;20106;-60
2022/04/02 02:38:20;;;;;;;4.50;2.28;;;;;;;3.17;68.76;101806.81;5063414;28;20463;-59
2022/04/02 02:40:46;;;;;;;4.10;2.50;;;;;;;3.16;68.92;101818.06;5064417;28;20038;-61
2022/04/02 02:43:12;;;;;;;5.57;2.25;;;;;;;2.96;70.13;101813.50;5064235;28;20127;-61
2022/04/02 02:45:37;;;;;;;8.43;2.65;;;;;;;3.09;69.87;101816.25;5063154;28;20129;-61
2022/04/02 02:48:03;;;;;;;9.13;2.97;;;;;;;3.12;69.89;101816.28;5064789;28;20029;-60
2022/04/02 02:50:29;;;;;;;3.15;2.42;;;;;;;3.05;69.90;101810.13;5029602;28;20496;-61
2022/04/02 02:52:54;;;;;;;6.22;2.58;;;;;;;3.10;70.14;101815.41;5064128;28;20025;-60
2022/04/02 02:55:20;;;;;;;6.20;2.65;;;;;;;3.05;70.41;101814.47;5063354;28;20027;-60
2022/04/02 02:57:46;;;;;;;5.55;2.72;;;;;;;2.97;70.42;101812.63;5064108;28;20029;-60
2022/04/02 03:00:12;;;;;;;7.60;2.60;;;;;;;2.83;70.90;101815.03;5064372;28;20028;-60
2022/04/02 03:02:38;;;;;;;5.72;2.67;;;;;;;2.87;70.96;101818.56;5064623;28;20276;-60
2022/04/02 03:05:10;;;;;;;2.72;2.45;;;;;;;2.85;70.89;101820.25;5065707;28;20025;-61
2022/04/02 03:07:49;;;;;;;4.53;2.50;;;;;;;2.96;70.42;101810.88;5069333;28;20057;-61
2022/04/02 03:10:19;;;;;;;3.85;2.50;;;;;;;2.91;70.90;101817.75;5067175;28;20071;-60
2022/04/02 03:12:45;;;;;;;6.57;2.58;;;;;;;2.92;70.46;101823.84;5068076;28;20406;-61
2022/04/02 03:15:11;;;;;;;10.20;2.88;;;;;;;2.94;70.46;101817.78;5067002;28;20044;-61
2022/04/02 03:17:37;;;;;;;4.38;2.55;;;;;;;2.86;70.63;101816.81;5068838;28;20064;-57
2022/04/02 03:20:04;;;;;;;3.10;2.47;;;;;;;2.89;70.61;101816.88;5068506;28;20033;-60
2022/04/02 03:22:30;;;;;;;8.07;2.90;;;;;;;2.73;71.33;101824.44;5068546;28;20390;-60
2022/04/02 03:24:55;;;;;;;5.07;3.03;;;;;;;2.72;71.85;101819.22;5068355;28;20135;-61
2022/04/02 03:27:21;;;;;;;6.50;2.83;;;;;;;2.76;71.76;101828.81;5068869;28;20530;-61
2022/04/02 03:29:47;;;;;;;7.68;3.03;;;;;;;2.72;71.98;101817.50;5067933;28;20078;-59
2022/04/02 03:32:12;;;;;;;6.47;2.75;;;;;;;2.48;72.65;101818.88;5067723;28;20712;-60
2022/04/02 03:34:37;;;;;;;7.70;3.08;;;;;;;2.69;72.40;101822.66;5068700;28;20105;-59
2022/04/02 03:37:04;;;;;;;5.55;2.40;;;;;;;2.65;72.40;101823.47;5068247;28;20032;-61
2022/04/02 03:39:30;;;;;;;9.35;2.95;;;;;;;2.69;72.39;101822.66;5050762;28;20025;-60
2022/04/02 03:41:55;;;;;;;9.65;3.10;;;;;;;2.64;72.75;101821.69;5050626;28;20024;-61
2022/04/02 03:44:20;;;;;;;7.00;2.90;;;;;;;2.65;72.70;101816.53;5066956;28;20039;-61
2022/04/02 03:49:29;;;;;;;5.22;2.65;;;;;;;2.59;73.26;101816.41;5067426;28;20101;-61
2022/04/02 03:51:55;;;;;;;5.38;3.05;;;;;;;2.59;73.09;101821.63;5050772;28;20045;-63
2022/04/02 03:54:21;;;;;;;6.75;3.28;;;;;;;2.52;73.63;101827.59;5050071;28;20094;-60
2022/04/02 03:56:46;;;;;;;5.45;2.47;;;;;;;2.56;73.63;101825.94;5067351;28;20020;-60
2022/04/02 03:59:12;;;;;;;5.63;3.13;;;;;;;2.46;74.02;101828.38;5066915;28;20044;-61
2022/04/02 04:01:38;;;;;;;4.85;2.60;;;;;;;2.50;74.16;101824.97;5067168;28;20059;-60
2022/04/02 04:04:04;;;;;;;5.05;3.17;;;;;;;2.42;74.45;101831.78;5067690;28;20540;-61
2022/04/02 04:06:29;;;;;;;4.93;3.03;;;;;;;2.47;74.21;101829.25;5048459;28;20067;-60
2022/04/02 04:08:56;;;;;;;10.15;3.17;;;;;;;2.45;74.49;101829.22;5066665;28;20048;-61
2022/04/02 04:11:22;;;;;;;8.23;3.15;;;;;;;2.50;74.10;101832.78;5066700;28;20020;-60
2022/04/02 04:13:48;;;;;;;4.35;2.85;;;;;;;2.49;73.96;101841.44;5067314;28;20348;-61
2022/04/02 04:16:14;;;;;;;10.63;2.92;;;;;;;2.40;74.40;101836.06;5065626;28;20109;-61
2022/04/02 04:18:39;;;;;;;7.82;3.42;;;;;;;2.47;74.57;101842.28;5067875;28;20468;-59
2022/04/02 04:21:05;;;;;;;3.47;3.10;;;;;;;2.47;74.10;101845.72;5066855;28;20101;-60
2022/04/02 04:23:30;;;;;;;10.30;3.40;;;;;;;2.48;74.04;101844.91;5051593;28;20031;-60
2022/04/02 04:25:55;;;;;;;6.43;3.28;;;;;;;2.43;73.90;101849.13;5067505;28;20032;-61
2022/04/02 04:28:21;;;;;;;6.40;3.40;;;;;;;2.43;74.10;101845.66;5067469;28;20025;-60
2022/04/02 04:30:48;;;;;;;5.75;3.22;;;;;;;2.41;73.72;101848.25;5066118;28;20386;-60
2022/04/02 04:33:14;;;;;;;10.38;3.00;;;;;;;2.45;73.88;101854.38;5067956;28;20040;-60
2022/04/02 04:35:40;;;;;;;5.60;3.45;;;;;;;2.39;73.90;101856.03;5067341;28;20474;-60
2022/04/02 04:38:05;;;;;;;8.73;3.65;;;;;;;2.48;73.52;101855.31;5067333;28;20070;-60
2022/04/02 04:40:31;;;;;;;7.25;3.08;;;;;;;2.53;72.78;101857.97;5067002;28;20111;-60
2022/04/02 04:42:56;;;;;;;4.97;2.90;;;;;;;2.49;73.06;101857.03;5067086;28;20253;-60
2022/04/02 04:45:22;;;;;;;4.78;2.95;;;;;;;2.45;72.92;101865.66;5066110;28;20028;-60
2022/04/02 04:47:47;;;;;;;5.10;3.08;;;;;;;2.54;72.74;101864.94;5067270;28;20467;-61
2022/04/02 04:50:13;;;;;;;6.35;3.17;;;;;;;2.50;72.77;101864.00;5066694;28;20385;-60
2022/04/02 04:52:38;;;;;;;8.32;3.40;;;;;;;2.50;72.52;101874.41;5066921;28;20438;-60
2022/04/02 04:55:04;;;;;;;4.07;3.03;;;;;;;2.40;72.88;101869.88;5066957;28;20104;-61
2022/04/02 04:57:30;;;;;;;7.25;3.10;;;;;;;2.42;72.81;101868.22;5066882;28;20024;-61
2022/04/02 04:59:56;;;;;;;4.35;3.35;;;;;;;2.30;73.26;101881.00;5066053;28;20459;-62
2022/04/02 05:02:22;;;;;;;5.15;3.20;;;;;;;2.39;72.88;101886.34;5065829;28;20036;-61
2022/04/02 05:04:48;;;;;;;5.70;3.90;;;;;;;2.42;72.83;101883.81;5065415;28;20281;-61
2022/04/02 05:07:13;;;;;;;3.90;2.85;;;;;;;2.36;72.86;101891.50;5064025;28;20029;-60
2022/04/02 05:09:40;;;;;;;12.13;3.47;;;;;;;2.41;72.51;101895.09;5066351;28;20039;-60
2022/04/02 05:12:06;;;;;;;9.13;3.15;;;;;;;2.27;72.97;101882.72;5065221;28;20041;-61
2022/04/02 05:14:32;;;;;;;6.55;3.25;;;;;;;2.27;72.93;101892.22;5064392;28;20054;-60
2022/04/02 05:16:57;;;;;;;8.80;3.00;;;;;;;2.22;73.10;101897.34;5065965;28;20096;-61
2022/04/02 05:19:23;;;;;;;7.72;3.00;;;;;;;2.23;73.29;101896.47;5065732;28;20029;-60
2022/04/02 05:21:48;;;;;;;8.27;3.05;;;;;;;2.23;73.03;101895.63;5066448;28;20031;-61
2022/04/02 05:24:14;;;;;;;8.55;3.10;;;;;;;2.27;72.96;101893.13;5065071;28;20024;-60
2022/04/02 05:26:39;;;;;;;5.43;2.97;;;;;;;2.27;72.71;101889.63;5066332;28;20028;-59
2022/04/02 05:29:04;;;;;;;6.88;3.65;;;;;;;2.27;72.70;101893.13;5065172;28;20031;-60
2022/04/02 05:31:30;;;;;;;8.60;3.83;;;;;;;2.25;72.77;101894.81;5065093;28;20517;-58
2022/04/02 05:33:55;;;;;;;8.68;3.65;;;;;;;2.26;72.64;101901.75;5048553;28;20993;-60
2022/04/02 05:36:20;;;;;;;11.18;4.10;;;;;;;2.34;72.88;101907.09;5064481;28;20028;-59
2022/04/02 05:38:46;;;;;;;4.88;3.30;;;;;;;2.37;71.94;101912.34;5058398;28;20012;-61
2022/04/02 05:41:11;;;;;;;5.88;3.30;;;;;;;2.43;71.99;101908.97;5063266;28;20044;-60
2022/04/02 05:43:36;;;;;;;6.65;3.10;;;;;;;2.45;71.94;101919.41;5064669;28;20475;-62
2022/04/02 05:46:02;;;;;;;8.93;3.78;;;;;;;2.45;71.82;101917.69;5065634;28;20033;-60
2022/04/02 05:48:30;;;;;;;4.60;3.20;;;;;;;2.42;71.88;101921.94;5066336;28;20033;-53
2022/04/02 05:50:55;;;;;;;5.43;3.13;;;;;;;2.52;71.74;101926.47;5059486;28;20617;-56
2022/04/02 05:53:20;;;;;;;9.07;3.47;;;;;;;2.48;71.70;101924.66;5046764;28;20072;-61
2022/04/02 05:55:49;;;;;;;6.65;3.35;;;;;;;2.61;71.18;101929.22;5030645;28;20032;-61
2022/04/02 05:58:14;;;;;;;7.13;3.38;;;;;;;2.48;71.54;101933.34;5063250;28;20086;-62
2022/04/02 06:00:40;;;;;;;4.80;3.17;;;;;;;2.60;71.31;101940.50;5065191;28;20021;-60
2022/04/02 06:03:05;;;;;;;7.32;4.00;;;;;;;2.72;70.71;101944.16;5065925;28;20335;-58
2022/04/02 06:05:31;;;;;;;6.97;3.70;;;;;;;2.82;70.32;101945.16;5065284;28;20078;-61
2022/04/02 06:07:56;;;;;;;6.10;3.55;;;;;;;2.95;70.25;101943.66;5065481;28;20017;-60
2022/04/02 06:10:21;;;;;;;7.63;3.33;;;;;;;2.99;69.69;101946.34;5065009;28;20028;-59
2022/04/02 06:12:50;;;;;;;6.22;3.63;;;;;;;3.10;69.54;101958.66;5063321;28;20040;-60
2022/04/02 06:15:15;;;;;;;5.20;3.25;;;;;;;3.23;68.77;101963.19;5064712;28;20024;-59
2022/04/02 06:17:41;;;;;;;18.00;4.22;;;;;;;3.20;68.51;101962.25;5064209;28;20039;-61
2022/04/02 06:20:07;;;;;;;8.15;3.65;;;;;;;3.09;68.71;101959.47;5065079;28;20036;-60
2022/04/02 06:22:34;;;;;;;7.68;4.07;;;;;;;3.07;68.24;101961.19;5065678;28;20040;-59
2022/04/02 06:24:59;;;;;;;9.68;3.40;;;;;;;2.93;68.50;101966.19;5065305;28;20062;-59
2022/04/02 06:27:25;;;;;;;5.07;3.00;;;;;;;2.86;68.68;101960.00;5045245;28;20483;-58
2022/04/02 06:29:50;;;;;;;8.70;3.45;;;;;;;3.10;68.28;101969.91;5063650;28;20174;-60
2022/04/02 06:32:16;;;;;;;5.60;3.38;;;;;;;3.17;68.34;101970.91;5044574;28;20064;-62
2022/04/02 06:34:41;;;;;;;8.75;3.78;;;;;;;2.89;68.70;101980.88;5052289;28;20090;-62
2022/04/02 06:37:06;;;;;;;5.10;3.08;;;;;;;3.10;68.30;101975.13;5044866;28;20126;-62
2022/04/02 06:39:31;;;;;;;5.47;3.50;;;;;;;2.99;68.50;101982.78;5043276;28;20032;-65
2022/04/02 06:41:57;;;;;;;7.78;3.88;;;;;;;3.03;68.64;101981.09;5052890;28;20028;-64
2022/04/02 06:44:22;;;;;;;3.03;2.63;;;;;;;3.04;68.54;101975.03;5057685;28;20021;-62
2022/04/02 06:46:48;;;;;;;5.70;2.92;;;;;;;3.13;68.12;101987.34;5044063;28;20454;-64
2022/04/02 06:49:13;;;;;;;5.88;3.10;;;;;;;3.27;67.99;101983.22;5044666;28;20088;-64
2022/04/02 06:51:39;;;;;;;6.80;3.05;;;;;;;3.31;67.76;101988.47;5043674;28;20375;-65
2022/04/02 06:54:05;;;;;;;5.38;3.13;;;;;;;3.39;67.67;101994.66;5054760;28;20070;-67
2022/04/02 06:56:30;;;;;;;5.28;2.90;;;;;;;3.32;67.14;101996.31;5056174;28;20067;-63
2022/04/02 06:58:56;;;;;;;5.45;3.25;;;;;;;3.55;66.55;102006.19;5052271;28;20179;-65
2022/04/02 07:01:21;;;;;;;7.55;3.22;;;;;;;3.49;66.26;101999.16;5043744;28;20514;-64
2022/04/02 07:03:46;;;;;;;4.70;2.67;;;;;;;3.56;66.36;101999.25;5053606;28;20495;-62
2022/04/02 07:06:12;;;;;;;3.42;2.60;;;;;;;3.59;65.77;102007.13;5053887;28;20538;-63
2022/04/02 07:08:38;;;;;;;5.25;2.47;;;;;;;3.67;65.25;102008.97;5043160;28;20032;-60
2022/04/02 07:11:04;;;;;;;7.65;2.92;;;;;;;3.70;64.97;102015.94;5061644;28;20409;-59
2022/04/02 07:13:30;;;;;;;7.53;2.85;;;;;;;3.79;64.75;102016.09;5061976;28;20502;-58
2022/04/02 07:15:56;;;;;;;3.22;2.50;;;;;;;3.96;64.27;102023.25;5063913;28;20028;-58
2022/04/02 07:18:24;;;;;;;4.93;2.97;;;;;;;4.12;64.00;102021.72;5063516;28;20009;-56
2022/04/02 07:20:56;;;;;;;4.47;2.75;;;;;;;4.00;63.40;102027.66;5064876;28;20032;-60
2022/04/02 07:23:21;;;;;;;5.20;3.00;;;;;;;4.01;62.88;102024.16;5046795;28;20033;-60
2022/04/02 07:25:49;;;;;;;7.53;3.03;;;;;;;3.90;62.42;102025.78;5064336;28;20027;-57
2022/04/02 07:28:14;;;;;;;9.95;2.90;;;;;;;4.04;62.96;102028.56;5062690;28;20009;-59
2022/04/02 07:30:40;;;;;;;5.05;2.55;;;;;;;4.08;62.20;102029.47;5063932;28;20047;-59
2022/04/02 07:33:06;;;;;;;5.47;2.70;;;;;;;4.08;61.50;102039.91;5063709;28;20035;-57
2022/04/02 07:35:43;;;;;;;5.00;2.22;;;;;;;4.06;61.00;102026.84;5063668;28;20506;-59
2022/04/02 07:38:20;;;;;;;3.92;2.33;;;;;;;4.19;60.20;102038.31;5064085;28;20025;-59
2022/04/02 07:41:16;;;;;;;5.70;2.47;;;;;;;4.24;59.46;102046.22;5063548;28;20055;-57
2022/04/02 07:43:58;;;;;;;4.50;2.70;;;;;;;4.42;58.63;102053.34;5063982;28;20035;-62
2022/04/02 07:46:33;;;;;;;4.85;2.10;;;;;;;4.33;58.37;102048.06;5063857;28;20047;-61
2022/04/02 07:48:59;;;;;;;6.28;2.40;;;;;;;4.63;58.28;102054.44;5058885;28;20062;-58
2022/04/02 07:51:28;;;;;;;3.60;2.40;;;;;;;4.51;57.85;102055.19;5044283;28;20027;-60
2022/04/02 07:53:55;;;;;;;5.60;2.22;;;;;;;4.51;57.92;102050.84;5053885;28;20108;-62
2022/04/02 07:56:31;;;;;;;5.80;2.30;;;;;;;4.57;57.47;102055.25;5052912;28;20059;-60
2022/04/02 07:59:01;;;;;;;2.67;1.83;;;;;;;4.49;56.83;102056.94;5065552;28;20021;-60
2022/04/02 08:01:27;;;;;;;6.82;1.95;;;;;;;4.67;56.16;102054.50;5066459;28;20047;-62
2022/04/02 08:03:52;;;;;;;6.72;1.90;;;;;;;5.00;55.41;102053.94;5049987;28;20028;-61
2022/04/02 08:06:21;;;;;;;5.07;1.70;;;;;;;5.37;54.36;102051.66;5048219;28;20094;-60
2022/04/02 08:08:47;;;;;;;3.10;2.03;;;;;;;5.60;53.86;102055.28;5067410;28;20478;-61
2022/04/02 08:11:12;;;;;;;5.43;1.67;;;;;;;5.76;53.12;102046.66;5048154;28;20036;-61
2022/04/02 08:13:40;;;;;;;3.38;1.73;;;;;;;5.66;52.33;102050.94;5065953;28;20074;-61
2022/04/02 08:16:05;;;;;;;6.78;1.98;;;;;;;6.07;52.15;102053.81;5067046;28;20028;-60
2022/04/02 08:18:31;;;;;;;5.05;1.38;;;;;;;6.10;50.41;102066.91;5066522;28;20048;-61
2022/04/02 08:20:58;;;;;;;4.57;1.65;;;;;;;6.38;49.60;102053.94;5066348;28;20028;-59
2022/04/02 08:23:23;;;;;;;6.50;1.77;;;;;;;6.27;49.23;102053.91;5056195;28;20115;-62
2022/04/02 08:25:58;;;;;;;2.88;1.30;;;;;;;6.65;47.92;102060.13;5058343;28;20229;-60
2022/04/02 08:28:49;;;;;;;5.30;1.77;;;;;;;6.23;48.84;102060.00;5043724;28;20059;-61
2022/04/02 08:31:41;;;;;;;5.63;1.45;;;;;;;6.64;47.64;102057.50;5044885;28;20029;-61
2022/04/02 08:34:19;;;;;;;5.10;1.70;;;;;;;6.37;47.60;102064.41;5040116;28;20479;-61
2022/04/02 08:37:19;;;;;;;2.13;1.45;;;;;;;6.67;47.03;102068.88;5056740;28;20032;-60
2022/04/02 08:40:09;;;;;;;6.93;1.65;;;;;;;7.05;46.46;102067.16;5046637;28;20133;-60
2022/04/02 08:43:02;;;;;;;4.40;1.35;;;;;;;6.53;45.75;102066.19;5043580;28;20173;-62
2022/04/02 08:45:29;;;;;;;1.95;1.20;;;;;;;6.69;45.77;102076.72;5057263;28;20033;-62
2022/04/02 08:48:17;;;;;;;8.50;1.40;;;;;;;6.74;45.92;102085.47;5046106;28;20418;-60
2022/04/02 08:50:46;;;;;;;3.60;1.35;;;;;;;6.06;46.47;102081.72;5060489;28;20036;-60
2022/04/02 08:53:19;;;;;;;3.20;2.05;;;;;;;6.00;46.19;102094.75;5058393;28;20036;-60
2022/04/02 08:55:50;;;;;;;3.78;1.45;;;;;;;5.88;45.73;102092.06;5055386;28;20008;-61
2022/04/02 08:58:58;;;;;;;5.50;1.65;;;;;;;5.66;45.88;102107.63;5057630;28;20111;-59
2022/04/02 09:01:34;;;;;;;1.77;1.13;;;;;;;5.43;43.71;102110.94;5050907;28;20040;-62
2022/04/02 09:04:10;;;;;;;2.42;1.67;;;;;;;5.03;43.17;102117.53;5051495;28;20107;-61
2022/04/02 09:07:10;;;;;;;1.27;1.17;;;;;;;5.39;42.68;102098.72;5041750;28;20064;-61
2022/04/02 09:10:03;;;;;;;3.92;1.10;;;;;;;5.44;42.62;102102.22;5043771;28;20221;-60
2022/04/02 09:12:37;;;;;;;2.13;1.58;;;;;;;5.56;43.50;102099.72;5063618;28;20093;-61
2022/04/02 09:15:11;;;;;;;3.45;1.20;;;;;;;5.80;42.73;102115.56;5054020;28;20055;-60
2022/04/02 09:17:54;;;;;;;2.30;1.30;;;;;;;5.56;40.93;102118.00;5052759;28;20036;-59
2022/04/02 09:20:34;;;;;;;3.67;1.40;;;;;;;5.42;42.75;102114.41;5061145;28;20094;-61
2022/04/02 09:23:16;;;;;;;2.72;1.33;;;;;;;5.70;42.15;102117.25;5047467;28;20066;-61
2022/04/02 09:25:57;;;;;;;1.50;1.17;;;;;;;5.60;42.27;102121.50;5063329;28;20458;-61
2022/04/02 09:28:42;;;;;;;6.53;1.17;;;;;;;5.45;42.39;102109.22;5062519;28;20562;-60
2022/04/02 09:31:29;;;;;;;1.33;1.00;;;;;;;5.62;42.09;102109.34;5044265;28;20016;-59
2022/04/02 09:33:59;;;;;;;1.27;1.17;;;;;;;5.65;43.15;102116.31;5062172;28;20021;-59
2022/04/02 09:36:45;;;;;;;1.60;1.50;;;;;;;5.95;44.04;102112.16;5046603;28;20024;-58
2022/04/02 09:39:22;;;;;;;1.95;1.50;;;;;;;5.97;44.75;102109.56;5046815;28;20033;-61
2022/04/02 09:42:02;;;;;;;4.75;1.90;;;;;;;5.90;45.53;102111.28;5064754;28;20128;-61
2022/04/02 09:44:58;;;;;;;5.55;1.50;;;;;;;5.67;44.46;102119.84;5045176;28;20032;-61
2022/04/02 09:47:47;;;;;;;2.47;1.50;;;;;;;5.34;44.95;102114.34;5055866;28;20052;-59
2022/04/02 09:50:14;;;;;;;3.72;1.40;;;;;;;5.69;45.53;102112.88;5054841;28;20056;-62
2022/04/02 09:52:55;;;;;;;2.75;1.60;;;;;;;5.69;46.08;102120.72;5055321;28;20029;-60
2022/04/02 09:55:29;;;;;;;5.63;1.92;;;;;;;5.60;46.19;102121.50;5055134;28;20493;-60
2022/04/02 09:58:10;;;;;;;3.25;1.73;;;;;;;5.85;45.69;102120.81;5045633;28;20060;-61
2022/04/02 10:00:48;;;;;;;3.25;1.58;;;;;;;6.24;44.97;102116.72;5053158;28;20492;-61
2022/04/02 10:03:24;;;;;;;1.70;1.30;;;;;;;6.35;43.05;102123.75;5053675;28;20120;-61
2022/04/02 10:06:14;;;;;;;2.10;1.58;;;;;;;6.52;42.95;102122.06;5055625;28;20045;-61
2022/04/02 10:08:52;;;;;;;3.05;1.55;;;;;;;6.72;43.20;102117.78;5053201;28;20438;-63
2022/04/02 10:11:19;;;;;;;3.03;1.60;;;;;;;6.73;42.97;102114.28;5052499;28;20445;-60
2022/04/02 10:13:44;;;;;;;2.20;1.38;;;;;;;6.92;41.10;102110.84;5043858;28;20577;-60
2022/04/02 10:16:12;;;;;;;2.90;1.05;;;;;;;6.79;41.25;102120.41;5054707;28;20111;-60
2022/04/02 10:18:38;;;;;;;3.13;1.05;;;;;;;6.76;40.80;102120.41;5052107;28;20333;-59
2022/04/02 10:21:07;;;;;;;3.70;1.15;;;;;;;6.46;40.26;102124.66;5044272;28;20028;-60
2022/04/02 10:23:37;;;;;;;5.93;1.25;;;;;;;6.71;40.12;102111.66;5045209;28;20044;-59
2022/04/02 10:26:07;;;;;;;1.52;1.23;;;;;;;6.67;40.93;102112.50;5053615;28;20501;-58
2022/04/02 10:28:34;;;;;;;4.13;1.52;;;;;;;6.86;42.69;102120.44;5053923;28;20052;-62
2022/04/02 10:31:01;;;;;;;3.65;1.63;;;;;;;6.99;43.19;102116.97;5042139;28;20116;-61
2022/04/02 10:33:30;;;;;;;3.90;1.67;;;;;;;6.95;42.68;102113.47;5053106;28;20115;-61
2022/04/02 10:35:57;;;;;;;4.00;1.80;;;;;;;7.20;43.89;102110.00;5057244;28;20024;-61
2022/04/02 10:38:38;;;;;;;1.73;1.48;;;;;;;7.53;42.25;102118.72;5043220;28;20063;-60
2022/04/02 10:41:08;;;;;;;5.07;1.38;;;;;;;7.41;40.85;102114.34;5044132;28;20479;-60
2022/04/02 10:43:59;;;;;;;4.65;1.55;;;;;;;7.40;41.48;102112.63;5044137;28;20120;-59
2022/04/02 10:46:25;;;;;;;3.20;1.52;;;;;;;7.55;40.20;102117.00;5040564;28;20102;-59
2022/04/02 10:48:59;;;;;;;3.47;1.50;;;;;;;6.39;42.26;102115.03;5064112;28;20483;-60
2022/04/02 10:51:26;;;;;;;2.08;1.40;;;;;;;6.70;42.94;102120.38;5063178;28;20024;-60
2022/04/02 10:54:00;;;;;;;3.17;1.83;;;;;;;6.61;43.07;102125.59;5046561;28;20055;-59
2022/04/02 10:56:32;;;;;;;2.05;1.17;;;;;;;7.08;43.71;102127.44;5062775;28;20024;-59
2022/04/02 10:58:58;;;;;;;3.00;1.70;;;;;;;7.19;43.78;102118.72;5062868;28;20055;-61
2022/04/02 11:01:24;;;;;;;5.28;1.50;;;;;;;7.05;42.86;102121.34;5062550;28;20123;-61
2022/04/02 11:03:56;;;;;;;5.78;1.90;;;;;;;7.19;42.09;102122.22;5063318;28;20024;-59
2022/04/02 11:06:45;;;;;;;2.17;1.30;;;;;;;6.75;42.37;102134.38;5063948;28;20078;-59
2022/04/02 11:09:28;;;;;;;2.75;1.42;;;;;;;6.60;41.87;102129.97;5063365;28;20039;-59
2022/04/02 11:11:55;;;;;;;4.65;1.60;;;;;;;6.91;43.15;102122.19;5062655;28;20326;-60
2022/04/02 11:14:20;;;;;;;6.10;1.88;;;;;;;7.11;42.08;102125.72;5044704;28;20035;-60
2022/04/02 11:16:46;;;;;;;2.55;1.40;;;;;;;7.24;42.32;102134.47;5064165;28;20021;-60
2022/04/02 11:22:07;;;;;;;3.13;1.40;;;;;;;7.13;42.42;102135.31;5063563;28;20093;-59
2022/04/02 11:25:10;;;;;;;6.43;1.38;;;;;;;7.09;41.02;102117.84;5064394;28;20021;-60
2022/04/02 11:27:38;;;;;;;2.60;1.38;;;;;;;7.37;40.90;102117.00;5047261;28;20012;-61
2022/04/02 11:30:11;;;;;;;4.18;1.33;;;;;;;7.33;40.74;102127.50;5068104;28;20380;-60
2022/04/02 11:32:41;;;;;;;1.40;1.23;;;;;;;6.87;40.68;102120.44;5067546;28;20161;-62
2022/04/02 11:35:09;;;;;;;2.35;1.35;;;;;;;7.10;41.21;102121.34;5067480;28;20032;-60
2022/04/02 11:37:44;;;;;;;4.05;1.23;;;;;;;7.32;42.23;102114.38;5032582;28;20056;-60
2022/04/02 11:40:14;;;;;;;3.10;1.70;;;;;;;7.23;42.75;102127.47;5048807;28;20025;-60
2022/04/02 11:42:46;;;;;;;2.40;1.30;;;;;;;7.08;40.67;102123.97;5067154;28;20024;-59
2022/04/02 11:45:17;;;;;;;1.42;1.25;;;;;;;7.59;41.97;102110.84;5048700;28;20036;-59
2022/04/02 11:47:50;;;;;;;2.80;1.50;;;;;;;7.58;39.31;102121.34;5067735;28;20374;-60
2022/04/02 11:50:27;;;;;;;7.05;1.38;;;;;;;7.36;38.50;102121.38;5066737;28;20075;-61
2022/04/02 11:52:58;;;;;;;2.47;1.58;;;;;;;6.99;39.68;102127.47;5067520;28;20027;-59
2022/04/02 11:55:24;;;;;;;2.13;1.30;;;;;;;7.53;38.78;102113.47;5048753;28;20039;-59